Time;durP1;ratioP1;P1;durP2;ratioP2;P2;SDS_P1;SDS_P2;PMS_P1;PMS_P2;Temp;Humidity;BMP_temperature;BMP_pressure;BME280_temperature;BME280_humidity;BME280_pressure;Samples;Min_cycle;Max_cycle;Signal;HPM_P1;HPM_P2
2022/08/16 00:01:00;;;;;;;;;;;;;;;;;;5065380;28;20003;-50
2022/08/16 00:03:27;;;;;;;;;;;;;;;;;;5065741;28;20379;-49
2022/08/16 00:05:53;;;;;;;;;;;;;;;;;;5065051;28;19908;-48
2022/08/16 00:08:19;;;;;;;;;;;;;;;;;;5065171;28;19919;-49
2022/08/16 00:10:45;;;;;;;;;;;;;;;;;;5065171;28;20003;-48
2022/08/16 00:13:11;;;;;;;;;;;;;;;;;;5065127;28;20372;-48
2022/08/16 00:15:38;;;;;;;;;;;;;;;;;;5064575;28;20205;-47
2022/08/16 00:18:05;;;;;;;;;;;;;;;;;;5065380;28;20003;-50
2022/08/16 00:20:31;;;;;;;;;;;;;;;;;;5064638;28;20463;-48
2022/08/16 00:22:57;;;;;;;;;;;;;;;;;;5065775;28;20007;-47
2022/08/16 00:25:23;;;;;;;;;;;;;;;;;;5065297;28;19915;-51
2022/08/16 00:27:49;;;;;;;;;;;;;;;;;;5064975;28;20027;-48
2022/08/16 00:30:15;;;;;;;;;;;;;;;;;;5065669;28;19916;-49
2022/08/16 00:32:42;;;;;;;;;;;;;;;;;;5064912;28;19919;-49
2022/08/16 00:35:08;;;;;;;;;;;;;;;;;;5065196;28;20011;-49
2022/08/16 00:37:34;;;;;;;;;;;;;;;;;;5064735;28;20438;-50
2022/08/16 00:39:59;;;;;;;;;;;;;;;;;;5064982;28;19908;-46
2022/08/16 00:42:26;;;;;;;;;;;;;;;;;;5066005;28;19912;-50
2022/08/16 00:44:53;;;;;;;;;;;;;;;;;;5064644;28;20346;-51
2022/08/16 00:47:19;;;;;;;;;;;;;;;;;;5065137;28;19912;-49
2022/08/16 00:49:45;;;;;;;;;;;;;;;;;;5064632;28;19931;-50
2022/08/16 00:52:10;;;;;;;;;;;;;;;;;;5065040;28;19958;-50
2022/08/16 00:54:36;;;;;;;;;;;;;;;;;;5064650;28;20394;-50
2022/08/16 00:57:02;;;;;;;;;;;;;;;;;;5065370;28;19931;-48
2022/08/16 00:59:28;;;;;;;;;;;;;;;;;;5069848;28;19909;-49
2022/08/16 01:01:54;;;;;;;;;;;;;;;;;;5069240;28;19916;-49
2022/08/16 01:04:20;;;;;;;;;;;;;;;;;;5068788;28;20025;-48
2022/08/16 01:06:46;;;;;;;;;;;;;;;;;;5068509;28;20000;-50
2022/08/16 01:09:12;;;;;;;;;;;;;;;;;;5068871;28;19951;-51
2022/08/16 01:11:38;;;;;;;;;;;;;;;;;;5068449;28;20388;-48
2022/08/16 01:14:04;;;;;;;;;;;;;;;;;;5068471;28;19931;-47
2022/08/16 01:16:31;;;;;;;;;;;;;;;;;;5068955;28;19913;-49
2022/08/16 01:18:58;;;;;;;;;;;;;;;;;;5069111;28;20041;-49
2022/08/16 01:21:24;;;;;;;;;;;;;;;;;;5068933;28;19913;-49
2022/08/16 01:23:50;;;;;;;;;;;;;;;;;;5068139;28;19912;-50
2022/08/16 01:26:17;;;;;;;;;;;;;;;;;;5050664;28;20399;-48
2022/08/16 01:28:44;;;;;;;;;;;;;;;;;;5068241;28;19905;-48
2022/08/16 01:31:10;;;;;;;;;;;;;;;;;;5068638;28;19958;-50
2022/08/16 01:33:36;;;;;;;;;;;;;;;;;;5067517;28;19916;-50
2022/08/16 01:36:01;;;;;;;;;;;;;;;;;;5068641;28;19915;-49
2022/08/16 01:38:27;;;;;;;;;;;;;;;;;;5069039;28;19923;-49
2022/08/16 01:40:53;;;;;;;;;;;;;;;;;;5067856;28;20383;-51
2022/08/16 01:43:20;;;;;;;;;;;;;;;;;;5068292;28;19948;-49
2022/08/16 01:45:47;;;;;;;;;;;;;;;;;;5067839;28;19916;-49
2022/08/16 01:48:13;;;;;;;;;;;;;;;;;;5068298;28;19916;-46
2022/08/16 01:50:40;;;;;;;;;;;;;;;;;;5067560;28;19916;-48
2022/08/16 01:53:07;;;;;;;;;;;;;;;;;;5068010;28;19913;-49
2022/08/16 01:55:34;;;;;;;;;;;;;;;;;;5067585;28;19908;-49
2022/08/16 01:58:01;;;;;;;;;;;;;;;;;;5067780;28;19951;-49
2022/08/16 02:00:27;;;;;;;;;;;;;;;;;;5068703;28;19915;-50
2022/08/16 02:02:52;;;;;;;;;;;;;;;;;;5067539;28;20006;-49
2022/08/16 02:05:20;;;;;;;;;;;;;;;;;;5067645;28;19909;-50
2022/08/16 02:07:46;;;;;;;;;;;;;;;;;;5067457;28;19908;-49
2022/08/16 02:10:12;;;;;;;;;;;;;;;;;;5066182;28;19943;-48
2022/08/16 02:12:38;;;;;;;;;;;;;;;;;;5067288;28;19955;-51
2022/08/16 02:15:07;;;;;;;;;;;;;;;;;;5067369;28;20411;-50
2022/08/16 02:17:33;;;;;;;;;;;;;;;;;;5067429;28;19908;-49
2022/08/16 02:19:58;;;;;;;;;;;;;;;;;;5067914;28;19962;-49
2022/08/16 02:22:24;;;;;;;;;;;;;;;;;;5068103;28;19912;-50
2022/08/16 02:24:50;;;;;;;;;;;;;;;;;;5066990;28;19954;-48
2022/08/16 02:27:17;;;;;;;;;;;;;;;;;;5067360;28;20391;-49
2022/08/16 02:29:43;;;;;;;;;;;;;;;;;;5067175;28;20320;-48
2022/08/16 02:32:09;;;;;;;;;;;;;;;;;;5067316;28;19909;-49
2022/08/16 02:34:35;;;;;;;;;;;;;;;;;;5066682;28;19923;-49
2022/08/16 02:37:01;;;;;;;;;;;;;;;;;;5067192;28;19942;-48
2022/08/16 02:39:27;;;;;;;;;;;;;;;;;;5067655;28;19994;-49
2022/08/16 02:41:55;;;;;;;;;;;;;;;;;;5067036;28;20365;-48
2022/08/16 02:44:22;;;;;;;;;;;;;;;;;;5067033;28;20310;-50
2022/08/16 02:46:48;;;;;;;;;;;;;;;;;;5066646;28;19916;-46
2022/08/16 02:49:13;;;;;;;;;;;;;;;;;;5066880;28;19908;-50
2022/08/16 02:51:39;;;;;;;;;;;;;;;;;;5066609;28;20322;-47
2022/08/16 02:54:05;;;;;;;;;;;;;;;;;;5066688;28;20004;-47
2022/08/16 02:56:31;;;;;;;;;;;;;;;;;;5066513;28;20302;-50
2022/08/16 02:58:57;;;;;;;;;;;;;;;;;;5067321;28;19912;-49
2022/08/16 03:01:24;;;;;;;;;;;;;;;;;;5066794;28;19915;-50
2022/08/16 03:03:50;;;;;;;;;;;;;;;;;;5066189;28;19915;-51
2022/08/16 03:06:19;;;;;;;;;;;;;;;;;;5066482;28;19908;-50
2022/08/16 03:08:45;;;;;;;;;;;;;;;;;;5066288;28;19908;-50
2022/08/16 03:11:12;;;;;;;;;;;;;;;;;;5066511;28;19940;-48
2022/08/16 03:13:40;;;;;;;;;;;;;;;;;;5066287;28;19956;-47
2022/08/16 03:16:06;;;;;;;;;;;;;;;;;;5059677;28;19909;-47
2022/08/16 03:18:32;;;;;;;;;;;;;;;;;;5046242;28;19935;-49
2022/08/16 03:21:01;;;;;;;;;;;;;;;;;;5046465;28;19921;-50
2022/08/16 03:23:27;;;;;;;;;;;;;;;;;;5046735;28;20019;-50
2022/08/16 03:25:53;;;;;;;;;;;;;;;;;;5046139;28;19995;-48
2022/08/16 03:28:19;;;;;;;;;;;;;;;;;;5046643;28;20383;-48
2022/08/16 03:30:45;;;;;;;;;;;;;;;;;;5046260;28;20112;-51
2022/08/16 03:33:12;;;;;;;;;;;;;;;;;;5045753;28;20139;-51
2022/08/16 03:35:38;;;;;;;;;;;;;;;;;;5045737;28;19915;-47
2022/08/16 03:38:05;;;;;;;;;;;;;;;;;;5045847;28;19916;-48
2022/08/16 03:40:32;;;;;;;;;;;;;;;;;;5045624;28;19913;-47
2022/08/16 03:42:58;;;;;;;;;;;;;;;;;;5028601;28;20025;-47
2022/08/16 03:45:25;;;;;;;;;;;;;;;;;;5045986;28;20005;-48
2022/08/16 03:47:51;;;;;;;;;;;;;;;;;;5045594;28;20392;-49
2022/08/16 03:50:17;;;;;;;;;;;;;;;;;;5045778;28;19913;-47
2022/08/16 03:52:43;;;;;;;;;;;;;;;;;;5045507;28;19916;-50
2022/08/16 03:55:09;;;;;;;;;;;;;;;;;;5045605;28;20307;-47
2022/08/16 03:57:35;;;;;;;;;;;;;;;;;;5045423;28;19913;-50
2022/08/16 04:00:11;;;;;;;;;;;;;;;;;;5045747;28;19928;-48
2022/08/16 04:02:36;;;;;;;;;;;;;;;;;;5045271;28;19909;-51
2022/08/16 04:05:02;;;;;;;;;;;;;;;;;;5045465;28;19920;-50
2022/08/16 04:07:28;;;;;;;;;;;;;;;;;;5045751;28;19915;-49
2022/08/16 04:09:54;;;;;;;;;;;;;;;;;;5046060;28;19909;-49
2022/08/16 04:12:20;;;;;;;;;;;;;;;;;;5044983;28;19960;-50
2022/08/16 04:14:48;;;;;;;;;;;;;;;;;;5059817;28;19916;-48
2022/08/16 04:17:14;;;;;;;;;;;;;;;;;;5065616;28;19909;-51
2022/08/16 04:19:40;;;;;;;;;;;;;;;;;;5047687;28;19939;-47
2022/08/16 04:22:06;;;;;;;;;;;;;;;;;;5045201;28;20392;-50
2022/08/16 04:24:32;;;;;;;;;;;;;;;;;;5044765;28;20023;-48
2022/08/16 04:26:58;;;;;;;;;;;;;;;;;;5045255;28;19922;-48
2022/08/16 04:29:23;;;;;;;;;;;;;;;;;;5044833;28;19909;-49
2022/08/16 04:31:49;;;;;;;;;;;;;;;;;;5044268;28;20342;-47
2022/08/16 04:34:15;;;;;;;;;;;;;;;;;;5044787;28;19960;-46
2022/08/16 04:36:41;;;;;;;;;;;;;;;;;;5045473;28;19912;-47
2022/08/16 04:39:08;;;;;;;;;;;;;;;;;;5045731;28;20418;-48
2022/08/16 04:41:34;;;;;;;;;;;;;;;;;;5044746;28;20335;-50
2022/08/16 04:44:00;;;;;;;;;;;;;;;;;;5045131;28;19913;-49
2022/08/16 04:46:25;;;;;;;;;;;;;;;;;;5045009;28;19913;-49
2022/08/16 04:48:51;;;;;;;;;;;;;;;;;;5045049;28;20276;-47
2022/08/16 04:51:19;;;;;;;;;;;;;;;;;;5044797;28;19917;-49
2022/08/16 04:53:44;;;;;;;;;;;;;;;;;;5044762;28;20007;-51
2022/08/16 04:56:10;;;;;;;;;;;;;;;;;;5045694;28;20027;-49
2022/08/16 04:58:36;;;;;;;;;;;;;;;;;;5044379;28;20342;-49
2022/08/16 05:01:03;;;;;;;;;;;;;;;;;;5044646;28;20019;-50
2022/08/16 05:03:30;;;;;;;;;;;;;;;;;;5044293;28;20407;-48
2022/08/16 05:05:56;;;;;;;;;;;;;;;;;;5045057;28;20234;-50
2022/08/16 05:08:22;;;;;;;;;;;;;;;;;;5044711;28;19913;-46
2022/08/16 05:10:48;;;;;;;;;;;;;;;;;;5044697;28;19927;-49
2022/08/16 05:13:16;;;;;;;;;;;;;;;;;;5044445;28;19909;-49
2022/08/16 05:15:43;;;;;;;;;;;;;;;;;;5044833;28;20111;-47
2022/08/16 05:18:09;;;;;;;;;;;;;;;;;;5045133;28;19948;-47
2022/08/16 05:20:36;;;;;;;;;;;;;;;;;;5044396;28;19997;-49
2022/08/16 05:23:03;;;;;;;;;;;;;;;;;;5044436;28;19909;-47
2022/08/16 05:25:29;;;;;;;;;;;;;;;;;;5044280;28;20308;-50
2022/08/16 05:27:56;;;;;;;;;;;;;;;;;;5044736;28;19909;-48
2022/08/16 05:30:22;;;;;;;;;;;;;;;;;;5044915;28;19912;-49
2022/08/16 05:32:48;;;;;;;;;;;;;;;;;;5044367;28;20414;-49
2022/08/16 05:35:14;;;;;;;;;;;;;;;;;;5044373;28;19934;-49
2022/08/16 05:37:40;;;;;;;;;;;;;;;;;;5044833;28;20631;-50
2022/08/16 05:40:06;;;;;;;;;;;;;;;;;;5044518;28;20327;-49
2022/08/16 05:42:32;;;;;;;;;;;;;;;;;;5044292;28;19995;-49
2022/08/16 05:45:00;;;;;;;;;;;;;;;;;;5047375;28;20399;-45
2022/08/16 05:47:25;;;;;;;;;;;;;;;;;;5047869;28;20086;-48
2022/08/16 05:49:52;;;;;;;;;;;;;;;;;;5047883;28;19966;-47
2022/08/16 05:52:18;;;;;;;;;;;;;;;;;;5048142;28;19995;-47
2022/08/16 05:54:44;;;;;;;;;;;;;;;;;;5047839;28;20011;-49
2022/08/16 05:57:10;;;;;;;;;;;;;;;;;;5048499;28;19912;-46
2022/08/16 05:59:36;;;;;;;;;;;;;;;;;;5047559;28;19912;-47
2022/08/16 06:02:02;;;;;;;;;;;;;;;;;;5047512;28;19913;-49
2022/08/16 06:04:29;;;;;;;;;;;;;;;;;;5047529;28;20234;-46
2022/08/16 06:06:55;;;;;;;;;;;;;;;;;;5047533;28;19962;-49
2022/08/16 06:09:20;;;;;;;;;;;;;;;;;;5047531;28;20248;-47
2022/08/16 06:11:46;;;;;;;;;;;;;;;;;;5057104;28;19927;-49
2022/08/16 06:14:13;;;;;;;;;;;;;;;;;;5067929;28;19912;-47
2022/08/16 06:16:40;;;;;;;;;;;;;;;;;;5056379;28;19909;-50
2022/08/16 06:19:06;;;;;;;;;;;;;;;;;;5050231;28;20343;-46
2022/08/16 06:21:32;;;;;;;;;;;;;;;;;;5060433;28;19917;-45
2022/08/16 06:23:58;;;;;;;;;;;;;;;;;;5050417;28;20328;-45
2022/08/16 06:26:24;;;;;;;;;;;;;;;;;;5064255;28;19908;-45
2022/08/16 06:28:50;;;;;;;;;;;;;;;;;;5058413;28;19939;-48
2022/08/16 06:31:16;;;;;;;;;;;;;;;;;;5050400;28;19913;-49
2022/08/16 06:33:42;;;;;;;;;;;;;;;;;;5049723;28;20363;-49
2022/08/16 06:36:08;;;;;;;;;;;;;;;;;;5050298;28;19917;-50
2022/08/16 06:38:33;;;;;;;;;;;;;;;;;;5050155;28;19919;-46
2022/08/16 06:40:59;;;;;;;;;;;;;;;;;;5051704;28;19924;-49
2022/08/16 06:43:26;;;;;;;;;;;;;;;;;;5070054;28;19966;-48
2022/08/16 06:45:52;;;;;;;;;;;;;;;;;;5070172;28;19908;-46
2022/08/16 06:48:20;;;;;;;;;;;;;;;;;;5070116;28;19913;-46
2022/08/16 06:50:49;;;;;;;;;;;;;;;;;;5070106;28;19915;-50
2022/08/16 06:53:15;;;;;;;;;;;;;;;;;;5069753;28;19916;-45
2022/08/16 06:55:42;;;;;;;;;;;;;;;;;;5068955;28;19931;-46
2022/08/16 06:58:08;;;;;;;;;;;;;;;;;;5069997;28;20292;-46
2022/08/16 07:00:34;;;;;;;;;;;;;;;;;;5069531;28;19919;-46
2022/08/16 07:02:59;;;;;;;;;;;;;;;;;;5069645;28;19940;-47
2022/08/16 07:05:26;;;;;;;;;;;;;;;;;;5069890;28;19952;-47
2022/08/16 07:07:51;;;;;;;;;;;;;;;;;;5062702;28;19913;-48
2022/08/16 07:10:17;;;;;;;;;;;;;;;;;;5069692;28;19923;-49
2022/08/16 07:12:43;;;;;;;;;;;;;;;;;;5069265;28;19966;-47
2022/08/16 07:15:09;;;;;;;;;;;;;;;;;;5069341;28;19944;-46
2022/08/16 07:17:35;;;;;;;;;;;;;;;;;;5069434;28;19909;-47
2022/08/16 07:20:01;;;;;;;;;;;;;;;;;;5069781;28;19912;-47
2022/08/16 07:22:27;;;;;;;;;;;;;;;;;;5063440;28;19924;-48
2022/08/16 07:24:53;;;;;;;;;;;;;;;;;;5063765;28;19912;-47
2022/08/16 07:27:19;;;;;;;;;;;;;;;;;;5069715;28;19912;-48
2022/08/16 07:29:46;;;;;;;;;;;;;;;;;;5050311;28;19966;-49
2022/08/16 07:32:12;;;;;;;;;;;;;;;;;;5061235;28;20283;-48
2022/08/16 07:34:39;;;;;;;;;;;;;;;;;;5057170;28;20319;-50
2022/08/16 07:37:04;;;;;;;;;;;;;;;;;;5068771;28;19952;-47
2022/08/16 07:39:30;;;;;;;;;;;;;;;;;;5067716;28;20402;-49
2022/08/16 07:41:56;;;;;;;;;;;;;;;;;;5063545;28;20386;-48
2022/08/16 07:44:23;;;;;;;;;;;;;;;;;;5047573;28;19919;-46
2022/08/16 07:46:49;;;;;;;;;;;;;;;;;;5047980;28;19961;-50
2022/08/16 07:49:15;;;;;;;;;;;;;;;;;;5048425;28;20007;-48
2022/08/16 07:51:41;;;;;;;;;;;;;;;;;;5049008;28;20055;-50
2022/08/16 07:54:08;;;;;;;;;;;;;;;;;;5048026;28;19970;-49
2022/08/16 07:56:35;;;;;;;;;;;;;;;;;;5047269;28;19913;-48
2022/08/16 07:59:01;;;;;;;;;;;;;;;;;;5047338;28;19999;-50
2022/08/16 08:01:28;;;;;;;;;;;;;;;;;;5046983;28;19948;-48
2022/08/16 08:03:55;;;;;;;;;;;;;;;;;;5047612;28;19990;-49
2022/08/16 08:06:22;;;;;;;;;;;;;;;;;;5046694;28;19963;-49
2022/08/16 08:08:49;;;;;;;;;;;;;;;;;;5045068;28;19916;-47
2022/08/16 08:11:15;;;;;;;;;;;;;;;;;;5045748;28;19920;-46
2022/08/16 08:13:41;;;;;;;;;;;;;;;;;;5045020;28;19916;-49
2022/08/16 08:16:11;;;;;;;;;;;;;;;;;;5047393;28;19920;-47
2022/08/16 08:18:39;;;;;;;;;;;;;;;;;;5047176;28;19920;-49
2022/08/16 08:21:06;;;;;;;;;;;;;;;;;;5029172;28;19920;-46
2022/08/16 08:23:35;;;;;;;;;;;;;;;;;;5046889;28;19932;-49
2022/08/16 08:26:02;;;;;;;;;;;;;;;;;;5046999;28;19915;-49
2022/08/16 08:28:30;;;;;;;;;;;;;;;;;;5046871;28;19999;-47
2022/08/16 08:30:57;;;;;;;;;;;;;;;;;;5046862;28;19909;-50
2022/08/16 08:33:23;;;;;;;;;;;;;;;;;;5046211;28;20002;-46
2022/08/16 08:35:49;;;;;;;;;;;;;;;;;;5046784;28;20581;-47
2022/08/16 08:38:16;;;;;;;;;;;;;;;;;;5046763;28;19944;-48
2022/08/16 08:40:43;;;;;;;;;;;;;;;;;;5046292;28;19913;-49
2022/08/16 08:43:12;;;;;;;;;;;;;;;;;;5046691;28;19923;-48
2022/08/16 08:45:37;;;;;;;;;;;;;;;;;;5046623;28;20680;-46
2022/08/16 08:48:03;;;;;;;;;;;;;;;;;;5047030;28;19913;-46
2022/08/16 08:50:29;;;;;;;;;;;;;;;;;;5046445;28;19994;-50
2022/08/16 08:52:56;;;;;;;;;;;;;;;;;;5046752;28;19962;-49
2022/08/16 08:55:23;;;;;;;;;;;;;;;;;;5046222;28;19913;-48
2022/08/16 08:57:50;;;;;;;;;;;;;;;;;;5046468;28;19919;-50
2022/08/16 09:00:16;;;;;;;;;;;;;;;;;;5046538;28;19955;-49
2022/08/16 09:02:43;;;;;;;;;;;;;;;;;;5046808;28;19909;-49
2022/08/16 09:05:09;;;;;;;;;;;;;;;;;;5046437;28;19916;-49
2022/08/16 09:07:37;;;;;;;;;;;;;;;;;;5046471;28;19920;-48
2022/08/16 09:10:03;;;;;;;;;;;;;;;;;;5046689;28;19913;-48
2022/08/16 09:12:29;;;;;;;;;;;;;;;;;;5027831;28;19923;-46
2022/08/16 09:14:56;;;;;;;;;;;;;;;;;;5046237;28;19917;-48
2022/08/16 09:17:23;;;;;;;;;;;;;;;;;;5046338;28;19909;-48
2022/08/16 09:19:50;;;;;;;;;;;;;;;;;;5049645;28;20007;-49
2022/08/16 09:22:17;;;;;;;;;;;;;;;;;;5050433;28;20345;-50
2022/08/16 09:24:43;;;;;;;;;;;;;;;;;;5050090;28;19913;-50
2022/08/16 09:27:10;;;;;;;;;;;;;;;;;;5049989;28;20347;-47
2022/08/16 09:29:37;;;;;;;;;;;;;;;;;;5050367;28;19909;-47
2022/08/16 09:32:03;;;;;;;;;;;;;;;;;;5050229;28;19913;-50
2022/08/16 09:34:29;;;;;;;;;;;;;;;;;;5049769;28;19932;-48
2022/08/16 09:36:56;;;;;;;;;;;;;;;;;;5050282;28;19920;-49
2022/08/16 09:39:22;;;;;;;;;;;;;;;;;;5049834;28;19916;-50
2022/08/16 09:41:50;;;;;;;;;;;;;;;;;;5049891;28;19928;-48
2022/08/16 09:44:19;;;;;;;;;;;;;;;;;;5049653;28;20334;-50
2022/08/16 09:46:45;;;;;;;;;;;;;;;;;;5049860;28;19967;-50
2022/08/16 09:49:10;;;;;;;;;;;;;;;;;;5049777;28;20357;-47
2022/08/16 09:51:36;;;;;;;;;;;;;;;;;;5049878;28;19909;-47
2022/08/16 09:54:03;;;;;;;;;;;;;;;;;;5049760;28;19947;-45
2022/08/16 09:56:29;;;;;;;;;;;;;;;;;;5049359;28;19916;-47
2022/08/16 09:58:55;;;;;;;;;;;;;;;;;;5049330;28;20293;-49
2022/08/16 10:01:23;;;;;;;;;;;;;;;;;;5048975;28;19996;-50
2022/08/16 10:03:49;;;;;;;;;;;;;;;;;;5049257;28;20149;-48
2022/08/16 10:06:16;;;;;;;;;;;;;;;;;;5049036;28;19984;-48
2022/08/16 10:08:41;;;;;;;;;;;;;;;;;;5049174;28;19916;-49
2022/08/16 10:13:52;;;;;;;;;;;;;;;;;;5048458;28;19919;-50
2022/08/16 10:16:19;;;;;;;;;;;;;;;;;;5049771;28;20465;-48
2022/08/16 10:18:45;;;;;;;;;;;;;;;;;;5049142;28;19916;-49
2022/08/16 10:21:12;;;;;;;;;;;;;;;;;;5049266;28;19962;-49
2022/08/16 10:23:39;;;;;;;;;;;;;;;;;;5049375;28;19916;-49
2022/08/16 10:26:05;;;;;;;;;;;;;;;;;;5049357;28;19913;-49
2022/08/16 10:28:31;;;;;;;;;;;;;;;;;;5048756;28;19962;-47
2022/08/16 10:30:58;;;;;;;;;;;;;;;;;;5048039;28;19924;-48
2022/08/16 10:33:26;;;;;;;;;;;;;;;;;;5049115;28;19920;-49
2022/08/16 10:35:52;;;;;;;;;;;;;;;;;;5048994;28;19916;-48
2022/08/16 10:38:18;;;;;;;;;;;;;;;;;;5050580;28;19913;-49
2022/08/16 10:40:45;;;;;;;;;;;;;;;;;;5049968;28;19919;-48
2022/08/16 10:43:11;;;;;;;;;;;;;;;;;;5050213;28;19970;-48
2022/08/16 10:45:37;;;;;;;;;;;;;;;;;;5059978;28;19923;-48
2022/08/16 10:48:03;;;;;;;;;;;;;;;;;;5062254;28;19913;-45
2022/08/16 10:50:29;;;;;;;;;;;;;;;;;;5050635;28;19913;-47
2022/08/16 10:52:57;;;;;;;;;;;;;;;;;;5050305;28;19912;-47
2022/08/16 10:55:23;;;;;;;;;;;;;;;;;;5067145;28;20016;-47
2022/08/16 10:57:49;;;;;;;;;;;;;;;;;;5034734;28;20394;-51
2022/08/16 11:00:15;;;;;;;;;;;;;;;;;;5067259;28;19985;-51
2022/08/16 11:02:42;;;;;;;;;;;;;;;;;;5033609;28;19916;-50
2022/08/16 11:05:10;;;;;;;;;;;;;;;;;;5058858;28;20336;-50
2022/08/16 11:07:36;;;;;;;;;;;;;;;;;;5055502;28;20038;-49
2022/08/16 11:10:02;;;;;;;;;;;;;;;;;;5058339;28;19920;-48
2022/08/16 11:12:29;;;;;;;;;;;;;;;;;;5058550;28;19920;-50
2022/08/16 11:14:55;;;;;;;;;;;;;;;;;;5056657;28;19920;-52
2022/08/16 11:17:22;;;;;;;;;;;;;;;;;;5051942;28;19983;-50
2022/08/16 11:19:48;;;;;;;;;;;;;;;;;;5061047;28;19962;-49
2022/08/16 11:22:15;;;;;;;;;;;;;;;;;;5056825;28;20085;-50
2022/08/16 11:24:41;;;;;;;;;;;;;;;;;;5051794;28;19923;-49
2022/08/16 11:27:07;;;;;;;;;;;;;;;;;;5053884;28;19939;-48
2022/08/16 11:29:34;;;;;;;;;;;;;;;;;;5049171;28;20363;-50
2022/08/16 11:32:00;;;;;;;;;;;;;;;;;;5059663;28;19917;-50
2022/08/16 11:34:26;;;;;;;;;;;;;;;;;;5055588;28;20065;-48
2022/08/16 11:36:52;;;;;;;;;;;;;;;;;;5065832;28;19913;-49
2022/08/16 11:39:19;;;;;;;;;;;;;;;;;;5060607;28;19939;-46
2022/08/16 11:41:45;;;;;;;;;;;;;;;;;;5047007;28;19924;-48
2022/08/16 11:44:12;;;;;;;;;;;;;;;;;;5066219;28;19920;-46
2022/08/16 11:46:38;;;;;;;;;;;;;;;;;;5062256;28;19925;-46
2022/08/16 11:49:04;;;;;;;;;;;;;;;;;;5053259;28;19923;-46
2022/08/16 11:51:31;;;;;;;;;;;;;;;;;;5048542;28;19917;-51
2022/08/16 11:53:58;;;;;;;;;;;;;;;;;;5031607;28;19970;-46
2022/08/16 11:56:25;;;;;;;;;;;;;;;;;;5048794;28;19917;-50
2022/08/16 11:58:52;;;;;;;;;;;;;;;;;;5047979;28;19924;-49
2022/08/16 12:01:18;;;;;;;;;;;;;;;;;;5060906;28;19967;-47
2022/08/16 12:03:44;;;;;;;;;;;;;;;;;;5055360;28;20527;-48
2022/08/16 12:06:10;;;;;;;;;;;;;;;;;;5049391;28;19916;-44
2022/08/16 12:08:37;;;;;;;;;;;;;;;;;;5051861;28;20307;-49
2022/08/16 12:11:04;;;;;;;;;;;;;;;;;;5058415;28;20298;-46
2022/08/16 12:13:30;;;;;;;;;;;;;;;;;;5064220;28;19960;-44
2022/08/16 12:15:56;;;;;;;;;;;;;;;;;;5068351;28;19944;-48
2022/08/16 12:18:22;;;;;;;;;;;;;;;;;;5067975;28;19953;-46
2022/08/16 12:20:48;;;;;;;;;;;;;;;;;;5067956;28;19913;-47
2022/08/16 12:23:14;;;;;;;;;;;;;;;;;;5066353;28;19959;-46
2022/08/16 12:25:41;;;;;;;;;;;;;;;;;;5063901;28;19985;-45
2022/08/16 12:28:07;;;;;;;;;;;;;;;;;;5058318;28;19917;-48
2022/08/16 12:30:32;;;;;;;;;;;;;;;;;;5053042;28;19913;-48
2022/08/16 12:32:58;;;;;;;;;;;;;;;;;;5058432;28;19924;-48
2022/08/16 12:35:25;;;;;;;;;;;;;;;;;;5039896;28;19920;-49
2022/08/16 12:37:52;;;;;;;;;;;;;;;;;;5052011;28;19960;-47
2022/08/16 12:40:19;;;;;;;;;;;;;;;;;;5047921;28;19916;-44
2022/08/16 12:42:45;;;;;;;;;;;;;;;;;;5048401;28;19913;-47
2022/08/16 12:45:11;;;;;;;;;;;;;;;;;;5067707;28;19915;-47
2022/08/16 12:50:22;;;;;;;;;;;;;;;;;;5067159;28;19920;-48
2022/08/16 12:52:49;;;;;;;;;;;;;;;;;;5067339;28;19942;-49
2022/08/16 12:55:15;;;;;;;;;;;;;;;;;;5071482;28;20027;-48
2022/08/16 12:57:41;;;;;;;;;;;;;;;;;;5064024;28;19917;-44
2022/08/16 13:00:09;;;;;;;;;;;;;;;;;;5052285;28;19912;-45
2022/08/16 13:02:36;;;;;;;;;;;;;;;;;;5069712;28;19916;-46
2022/08/16 13:05:02;;;;;;;;;;;;;;;;;;5071024;28;19912;-46
2022/08/16 13:07:31;;;;;;;;;;;;;;;;;;5072113;28;20439;-46
2022/08/16 13:10:06;;;;;;;;;;;;;;;;;;5071584;28;20340;-46
2022/08/16 13:12:33;;;;;;;;;;;;;;;;;;5053104;28;19928;-48
2022/08/16 13:15:00;;;;;;;;;;;;;;;;;;5064928;28;19974;-45
2022/08/16 13:17:26;;;;;;;;;;;;;;;;;;5071589;28;19909;-47
2022/08/16 13:19:52;;;;;;;;;;;;;;;;;;5071491;28;19908;-44
2022/08/16 13:22:18;;;;;;;;;;;;;;;;;;5071325;28;19931;-47
2022/08/16 13:24:45;;;;;;;;;;;;;;;;;;5070545;28;20418;-45
2022/08/16 13:27:11;;;;;;;;;;;;;;;;;;5070923;28;20337;-47
2022/08/16 13:29:38;;;;;;;;;;;;;;;;;;5071467;28;19912;-48
2022/08/16 13:32:04;;;;;;;;;;;;;;;;;;5053474;28;20280;-47
2022/08/16 13:34:31;;;;;;;;;;;;;;;;;;5070403;28;19913;-45
2022/08/16 13:36:56;;;;;;;;;;;;;;;;;;5071342;28;19948;-45
2022/08/16 13:39:22;;;;;;;;;;;;;;;;;;5070553;28;19962;-48
2022/08/16 13:41:48;;;;;;;;;;;;;;;;;;5070814;28;20027;-47
2022/08/16 13:44:16;;;;;;;;;;;;;;;;;;5061434;28;19973;-46
2022/08/16 13:46:41;;;;;;;;;;;;;;;;;;5070432;28;19912;-46
2022/08/16 13:49:08;;;;;;;;;;;;;;;;;;5071177;28;19916;-45
2022/08/16 13:51:34;;;;;;;;;;;;;;;;;;5070885;28;19912;-45
2022/08/16 13:54:04;;;;;;;;;;;;;;;;;;5070816;28;19916;-48
2022/08/16 13:56:32;;;;;;;;;;;;;;;;;;5070378;28;19913;-44
2022/08/16 13:58:59;;;;;;;;;;;;;;;;;;5062974;28;19921;-46
2022/08/16 14:01:24;;;;;;;;;;;;;;;;;;5070744;28;19991;-43
2022/08/16 14:03:52;;;;;;;;;;;;;;;;;;5070582;28;20419;-44
2022/08/16 14:06:19;;;;;;;;;;;;;;;;;;5069736;28;19913;-44
2022/08/16 14:08:46;;;;;;;;;;;;;;;;;;5070224;28;19920;-44
2022/08/16 14:11:12;;;;;;;;;;;;;;;;;;5070104;28;19920;-47
2022/08/16 14:13:38;;;;;;;;;;;;;;;;;;5053615;28;20356;-44
2022/08/16 14:16:03;;;;;;;;;;;;;;;;;;5050349;28;20351;-46
2022/08/16 14:18:29;;;;;;;;;;;;;;;;;;5051186;28;19913;-44
2022/08/16 14:20:57;;;;;;;;;;;;;;;;;;5056437;28;19970;-45
2022/08/16 14:23:22;;;;;;;;;;;;;;;;;;5069781;28;20378;-45
2022/08/16 14:25:48;;;;;;;;;;;;;;;;;;5068284;28;19959;-48
2022/08/16 14:28:15;;;;;;;;;;;;;;;;;;5064700;28;19913;-44
2022/08/16 14:30:41;;;;;;;;;;;;;;;;;;5049733;28;20391;-47
2022/08/16 14:33:07;;;;;;;;;;;;;;;;;;5057291;28;19917;-46
2022/08/16 14:35:33;;;;;;;;;;;;;;;;;;5069754;28;19924;-45
2022/08/16 14:37:59;;;;;;;;;;;;;;;;;;5069777;28;20384;-43
2022/08/16 14:40:25;;;;;;;;;;;;;;;;;;5056995;28;20011;-46
2022/08/16 14:42:51;;;;;;;;;;;;;;;;;;5070122;28;20428;-49
2022/08/16 14:45:17;;;;;;;;;;;;;;;;;;5069503;28;19939;-43
2022/08/16 14:47:43;;;;;;;;;;;;;;;;;;5069186;28;20414;-43
2022/08/16 14:50:10;;;;;;;;;;;;;;;;;;5069744;28;19913;-45
2022/08/16 14:52:37;;;;;;;;;;;;;;;;;;5069769;28;19915;-45
2022/08/16 14:55:03;;;;;;;;;;;;;;;;;;5069516;28;20382;-44
2022/08/16 14:57:29;;;;;;;;;;;;;;;;;;5068740;28;20404;-45
2022/08/16 14:59:55;;;;;;;;;;;;;;;;;;5069093;28;20000;-48
2022/08/16 15:02:22;;;;;;;;;;;;;;;;;;5069257;28;19913;-44
2022/08/16 15:04:48;;;;;;;;;;;;;;;;;;5067897;28;19912;-45
2022/08/16 15:07:14;;;;;;;;;;;;;;;;;;5069423;28;19953;-43
2022/08/16 15:09:40;;;;;;;;;;;;;;;;;;5069014;28;19913;-44
2022/08/16 15:12:06;;;;;;;;;;;;;;;;;;5062673;28;20414;-44
2022/08/16 15:14:32;;;;;;;;;;;;;;;;;;5047144;28;19923;-44
2022/08/16 15:16:59;;;;;;;;;;;;;;;;;;5048955;28;19923;-46
2022/08/16 15:19:26;;;;;;;;;;;;;;;;;;5059955;28;19913;-45
2022/08/16 15:24:36;;;;;;;;;;;;;;;;;;5061870;28;19924;-44
2022/08/16 15:27:02;;;;;;;;;;;;;;;;;;5068900;28;19908;-45
2022/08/16 15:29:28;;;;;;;;;;;;;;;;;;5068617;28;20414;-46
2022/08/16 15:31:57;;;;;;;;;;;;;;;;;;5068583;28;19908;-46
2022/08/16 15:34:24;;;;;;;;;;;;;;;;;;5068113;28;19916;-45
2022/08/16 15:36:51;;;;;;;;;;;;;;;;;;5068800;28;19912;-47
2022/08/16 15:39:17;;;;;;;;;;;;;;;;;;5068154;28;19923;-45
2022/08/16 15:41:43;;;;;;;;;;;;;;;;;;5067769;28;19916;-47
2022/08/16 15:44:09;;;;;;;;;;;;;;;;;;5068195;28;19917;-47
2022/08/16 15:46:35;;;;;;;;;;;;;;;;;;5068001;28;19920;-47
2022/08/16 15:49:01;;;;;;;;;;;;;;;;;;5068742;28;19912;-46
2022/08/16 15:51:27;;;;;;;;;;;;;;;;;;5068289;28;19915;-45
2022/08/16 15:53:54;;;;;;;;;;;;;;;;;;5068458;28;19917;-46
2022/08/16 15:56:20;;;;;;;;;;;;;;;;;;5067591;28;19909;-45
2022/08/16 15:58:47;;;;;;;;;;;;;;;;;;5068307;28;19920;-47
2022/08/16 16:01:17;;;;;;;;;;;;;;;;;;5067979;28;19912;-48
2022/08/16 16:03:44;;;;;;;;;;;;;;;;;;5062406;28;20066;-45
2022/08/16 16:06:11;;;;;;;;;;;;;;;;;;5069099;28;19915;-43
2022/08/16 16:08:37;;;;;;;;;;;;;;;;;;5062058;28;19913;-44
2022/08/16 16:11:03;;;;;;;;;;;;;;;;;;5053831;28;19926;-44
2022/08/16 16:13:29;;;;;;;;;;;;;;;;;;5062327;28;19916;-45
2022/08/16 16:15:55;;;;;;;;;;;;;;;;;;5054910;28;19952;-45
2022/08/16 16:18:21;;;;;;;;;;;;;;;;;;5064902;28;19950;-43
2022/08/16 16:20:47;;;;;;;;;;;;;;;;;;5067412;28;19920;-44
2022/08/16 16:23:13;;;;;;;;;;;;;;;;;;5067645;28;20590;-46
2022/08/16 16:25:39;;;;;;;;;;;;;;;;;;5067248;28;19935;-43
2022/08/16 16:28:05;;;;;;;;;;;;;;;;;;5066863;28;20360;-43
2022/08/16 16:30:32;;;;;;;;;;;;;;;;;;5067342;28;19912;-43
2022/08/16 16:32:58;;;;;;;;;;;;;;;;;;5067443;28;19913;-43
2022/08/16 16:35:24;;;;;;;;;;;;;;;;;;5066435;28;19947;-44
2022/08/16 16:37:49;;;;;;;;;;;;;;;;;;5065229;28;20046;-46
2022/08/16 16:40:15;;;;;;;;;;;;;;;;;;5055343;28;20445;-50
2022/08/16 16:42:41;;;;;;;;;;;;;;;;;;5045249;28;20294;-45
2022/08/16 16:45:08;;;;;;;;;;;;;;;;;;5054631;28;19927;-46
2022/08/16 16:47:34;;;;;;;;;;;;;;;;;;5049402;28;20086;-46